sensor_id;sensor_type;location;lat;lon;timestamp;pressure;altitude;pressure_sealevel;temperature;humidity
13476;BME280;6810;63.824;20.288;2023-09-30T00:01:47;100220.59;;;13.28;96.63
13476;BME280;6810;63.824;20.288;2023-09-30T00:04:34;100216.19;;;13.27;96.75
13476;BME280;6810;63.824;20.288;2023-09-30T00:07:21;100227.25;;;13.22;96.57
13476;BME280;6810;63.824;20.288;2023-09-30T00:10:08;100205.78;;;13.11;96.45
13476;BME280;6810;63.824;20.288;2023-09-30T00:12:55;100214.44;;;13.15;97.22
13476;BME280;6810;63.824;20.288;2023-09-30T00:15:42;100212.00;;;13.12;97.06
13476;BME280;6810;63.824;20.288;2023-09-30T00:18:29;100208.59;;;13.10;97.18
13476;BME280;6810;63.824;20.288;2023-09-30T00:21:16;100200.69;;;13.08;96.86
13476;BME280;6810;63.824;20.288;2023-09-30T00:24:03;100200.69;;;13.08;97.44
13476;BME280;6810;63.824;20.288;2023-09-30T00:26:50;100197.78;;;13.11;97.72
13476;BME280;6810;63.824;20.288;2023-09-30T00:29:38;100198.50;;;13.13;97.26
13476;BME280;6810;63.824;20.288;2023-09-30T00:32:25;100184.28;;;13.13;97.70
13476;BME280;6810;63.824;20.288;2023-09-30T00:35:12;100187.81;;;13.13;97.55
13476;BME280;6810;63.824;20.288;2023-09-30T00:37:59;100191.47;;;13.12;97.63
13476;BME280;6810;63.824;20.288;2023-09-30T00:40:49;100186.13;;;13.12;97.72
13476;BME280;6810;63.824;20.288;2023-09-30T00:43:36;100173.09;;;13.08;97.48
13476;BME280;6810;63.824;20.288;2023-09-30T00:46:32;100175.88;;;13.06;97.42
13476;BME280;6810;63.824;20.288;2023-09-30T00:49:19;100173.44;;;13.03;97.51
13476;BME280;6810;63.824;20.288;2023-09-30T00:52:06;100170.66;;;13.05;97.44
13476;BME280;6810;63.824;20.288;2023-09-30T00:54:54;100164.44;;;13.04;97.93
13476;BME280;6810;63.824;20.288;2023-09-30T00:57:41;100164.44;;;13.04;97.64
13476;BME280;6810;63.824;20.288;2023-09-30T01:00:28;100166.25;;;13.04;97.81
13476;BME280;6810;63.824;20.288;2023-09-30T01:03:16;100161.88;;;13.03;97.96
13476;BME280;6810;63.824;20.288;2023-09-30T01:06:03;100159.22;;;13.03;97.64
13476;BME280;6810;63.824;20.288;2023-09-30T01:08:50;100154.72;;;13.03;98.11
13476;BME280;6810;63.824;20.288;2023-09-30T01:11:37;100155.88;;;12.99;97.50
13476;BME280;6810;63.824;20.288;2023-09-30T01:14:26;100148.09;;;12.96;97.72
13476;BME280;6810;63.824;20.288;2023-09-30T01:17:14;100141.03;;;12.95;97.52
13476;BME280;6810;63.824;20.288;2023-09-30T01:20:01;100134.13;;;12.93;97.55
13476;BME280;6810;63.824;20.288;2023-09-30T01:22:48;100127.91;;;12.92;97.69
13476;BME280;6810;63.824;20.288;2023-09-30T01:25:36;100136.91;;;12.91;97.23
13476;BME280;6810;63.824;20.288;2023-09-30T01:28:23;100133.50;;;12.89;97.45
13476;BME280;6810;63.824;20.288;2023-09-30T01:31:10;100127.28;;;12.89;97.08
13476;BME280;6810;63.824;20.288;2023-09-30T01:33:58;100132.03;;;12.85;97.21
13476;BME280;6810;63.824;20.288;2023-09-30T01:36:45;100127.88;;;12.81;97.67
13476;BME280;6810;63.824;20.288;2023-09-30T01:39:32;100127.25;;;12.78;97.04
13476;BME280;6810;63.824;20.288;2023-09-30T01:42:20;100124.69;;;12.76;97.71
13476;BME280;6810;63.824;20.288;2023-09-30T01:45:07;100117.75;;;12.74;97.90
13476;BME280;6810;63.824;20.288;2023-09-30T01:47:55;100113.00;;;12.66;97.48
13476;BME280;6810;63.824;20.288;2023-09-30T01:50:42;100111.78;;;12.70;98.10
13476;BME280;6810;63.824;20.288;2023-09-30T01:53:28;100111.06;;;12.68;97.98
13476;BME280;6810;63.824;20.288;2023-09-30T01:56:16;100109.34;;;12.67;98.05
13476;BME280;6810;63.824;20.288;2023-09-30T01:59:03;100092.56;;;12.54;97.32
13476;BME280;6810;63.824;20.288;2023-09-30T02:01:50;100109.59;;;12.64;97.10
13476;BME280;6810;63.824;20.288;2023-09-30T02:04:37;100097.44;;;12.60;97.83
13476;BME280;6810;63.824;20.288;2023-09-30T02:07:24;100108.38;;;12.57;97.72
13476;BME280;6810;63.824;20.288;2023-09-30T02:10:11;100094.38;;;12.54;97.06
13476;BME280;6810;63.824;20.288;2023-09-30T02:12:58;100106.38;;;12.48;97.17
13476;BME280;6810;63.824;20.288;2023-09-30T02:15:46;100092.50;;;12.43;97.35
13476;BME280;6810;63.824;20.288;2023-09-30T02:18:34;100093.09;;;12.36;97.21
13476;BME280;6810;63.824;20.288;2023-09-30T02:21:21;100080.44;;;12.27;96.92
13476;BME280;6810;63.824;20.288;2023-09-30T02:24:08;100079.56;;;12.26;96.94
13476;BME280;6810;63.824;20.288;2023-09-30T02:26:55;100079.81;;;12.23;96.59
13476;BME280;6810;63.824;20.288;2023-09-30T02:29:42;100074.69;;;12.20;97.61
13476;BME280;6810;63.824;20.288;2023-09-30T02:32:29;100068.59;;;12.18;97.01
13476;BME280;6810;63.824;20.288;2023-09-30T02:35:17;100055.09;;;12.08;97.14
13476;BME280;6810;63.824;20.288;2023-09-30T02:38:04;100050.34;;;12.12;97.33
13476;BME280;6810;63.824;20.288;2023-09-30T02:40:54;100055.00;;;12.10;97.45
13476;BME280;6810;63.824;20.288;2023-09-30T02:43:42;100056.78;;;12.09;98.05
13476;BME280;6810;63.824;20.288;2023-09-30T02:46:29;100057.78;;;12.08;97.51
13476;BME280;6810;63.824;20.288;2023-09-30T02:49:16;100064.94;;;12.08;97.41
13476;BME280;6810;63.824;20.288;2023-09-30T02:52:03;100060.56;;;12.07;97.67
13476;BME280;6810;63.824;20.288;2023-09-30T02:54:50;100063.34;;;12.05;97.86
13476;BME280;6810;63.824;20.288;2023-09-30T02:57:37;100058.34;;;12.01;96.72
13476;BME280;6810;63.824;20.288;2023-09-30T03:00:24;100048.84;;;11.97;97.39
13476;BME280;6810;63.824;20.288;2023-09-30T03:03:12;100054.94;;;11.99;97.51
13476;BME280;6810;63.824;20.288;2023-09-30T03:05:59;100048.69;;;11.87;97.42
13476;BME280;6810;63.824;20.288;2023-09-30T03:08:46;100056.97;;;11.95;97.51
13476;BME280;6810;63.824;20.288;2023-09-30T03:11:33;100054.41;;;11.94;96.64
13476;BME280;6810;63.824;20.288;2023-09-30T03:14:20;100047.50;;;11.91;97.18
13476;BME280;6810;63.824;20.288;2023-09-30T03:17:07;100042.25;;;11.90;97.08
13476;BME280;6810;63.824;20.288;2023-09-30T03:19:58;100045.06;;;11.88;97.44
13476;BME280;6810;63.824;20.288;2023-09-30T03:22:45;100039.81;;;11.87;97.67
13476;BME280;6810;63.824;20.288;2023-09-30T03:25:35;100020.84;;;11.79;96.89
13476;BME280;6810;63.824;20.288;2023-09-30T03:28:22;100033.09;;;11.81;96.87
13476;BME280;6810;63.824;20.288;2023-09-30T03:31:09;100040.16;;;11.82;96.75
13476;BME280;6810;63.824;20.288;2023-09-30T03:33:56;100031.41;;;11.80;97.69
13476;BME280;6810;63.824;20.288;2023-09-30T03:36:43;100020.97;;;11.77;98.10
13476;BME280;6810;63.824;20.288;2023-09-30T03:39:30;99999.03;;;11.61;97.82
13476;BME280;6810;63.824;20.288;2023-09-30T03:42:17;100023.63;;;11.77;98.11
13476;BME280;6810;63.824;20.288;2023-09-30T03:45:05;100020.09;;;11.77;97.92
13476;BME280;6810;63.824;20.288;2023-09-30T03:47:52;100017.44;;;11.77;97.04
13476;BME280;6810;63.824;20.288;2023-09-30T03:50:39;100020.97;;;11.77;97.12
13476;BME280;6810;63.824;20.288;2023-09-30T03:53:26;100015.72;;;11.76;97.06
13476;BME280;6810;63.824;20.288;2023-09-30T03:56:13;100015.72;;;11.76;97.16
13476;BME280;6810;63.824;20.288;2023-09-30T03:59:00;100015.09;;;11.72;97.91
13476;BME280;6810;63.824;20.288;2023-09-30T04:01:47;100008.41;;;11.67;96.71
13476;BME280;6810;63.824;20.288;2023-09-30T04:04:34;100004.34;;;11.61;96.89
13476;BME280;6810;63.824;20.288;2023-09-30T04:07:21;99999.47;;;11.55;97.10
13476;BME280;6810;63.824;20.288;2023-09-30T04:10:09;100001.72;;;11.49;97.62
13476;BME280;6810;63.824;20.288;2023-09-30T04:12:56;99993.84;;;11.47;96.51
13476;BME280;6810;63.824;20.288;2023-09-30T04:15:43;99984.22;;;11.45;96.96
13476;BME280;6810;63.824;20.288;2023-09-30T04:18:30;99986.41;;;11.40;97.28
13476;BME280;6810;63.824;20.288;2023-09-30T04:21:17;99983.09;;;11.36;97.01
13476;BME280;6810;63.824;20.288;2023-09-30T04:24:04;99956.25;;;11.14;96.76
13476;BME280;6810;63.824;20.288;2023-09-30T04:26:51;99988.88;;;11.30;97.56
13476;BME280;6810;63.824;20.288;2023-09-30T04:29:38;99983.75;;;11.27;96.85
13476;BME280;6810;63.824;20.288;2023-09-30T04:32:25;99983.34;;;11.21;97.39
13476;BME280;6810;63.824;20.288;2023-09-30T04:35:12;99980.16;;;11.16;97.54
13476;BME280;6810;63.824;20.288;2023-09-30T04:38:00;99983.91;;;11.13;97.99
13476;BME280;6810;63.824;20.288;2023-09-30T04:40:46;99975.16;;;11.11;97.45
13476;BME280;6810;63.824;20.288;2023-09-30T04:43:34;99965.47;;;11.10;96.85
13476;BME280;6810;63.824;20.288;2023-09-30T04:46:21;99970.03;;;11.08;97.61
13476;BME280;6810;63.824;20.288;2023-09-30T04:49:08;99958.66;;;11.06;96.75
13476;BME280;6810;63.824;20.288;2023-09-30T04:51:55;99943.72;;;11.04;97.21
13476;BME280;6810;63.824;20.288;2023-09-30T04:54:42;99940.22;;;11.03;96.58
13476;BME280;6810;63.824;20.288;2023-09-30T04:57:29;99931.56;;;11.00;97.75
13476;BME280;6810;63.824;20.288;2023-09-30T05:00:18;99879.28;;;10.74;97.33
13476;BME280;6810;63.824;20.288;2023-09-30T05:03:05;99920.38;;;10.95;97.37
13476;BME280;6810;63.824;20.288;2023-09-30T05:05:53;99928.28;;;10.96;97.75
13476;BME280;6810;63.824;20.288;2023-09-30T05:08:42;99934.56;;;10.95;96.84
13476;BME280;6810;63.824;20.288;2023-09-30T05:11:29;99896.97;;;10.75;96.43
13476;BME280;6810;63.824;20.288;2023-09-30T05:14:16;99932.13;;;10.92;97.53
13476;BME280;6810;63.824;20.288;2023-09-30T05:17:04;99922.63;;;10.88;96.41
13476;BME280;6810;63.824;20.288;2023-09-30T05:19:51;99925.53;;;10.85;96.93
13476;BME280;6810;63.824;20.288;2023-09-30T05:22:39;99925.13;;;10.79;97.43
13476;BME280;6810;63.824;20.288;2023-09-30T05:25:26;99926.72;;;10.81;97.05
13476;BME280;6810;63.824;20.288;2023-09-30T05:28:13;99939.28;;;10.79;96.10
13476;BME280;6810;63.824;20.288;2023-09-30T05:31:00;99934.81;;;10.80;96.93
13476;BME280;6810;63.824;20.288;2023-09-30T05:33:47;99924.59;;;10.74;97.01
13476;BME280;6810;63.824;20.288;2023-09-30T05:36:34;99921.59;;;10.78;96.87
13476;BME280;6810;63.824;20.288;2023-09-30T05:39:21;99912.97;;;10.75;96.00
13476;BME280;6810;63.824;20.288;2023-09-30T05:42:09;99926.50;;;10.72;96.39
13476;BME280;6810;63.824;20.288;2023-09-30T05:44:56;99905.84;;;10.63;95.73
13476;BME280;6810;63.824;20.288;2023-09-30T05:47:43;99911.50;;;10.58;95.57
13476;BME280;6810;63.824;20.288;2023-09-30T05:50:31;99903.75;;;10.55;96.63
13476;BME280;6810;63.824;20.288;2023-09-30T05:53:19;99911.09;;;10.51;95.47
13476;BME280;6810;63.824;20.288;2023-09-30T05:56:05;99905.03;;;10.49;96.18
13476;BME280;6810;63.824;20.288;2023-09-30T05:58:52;99904.28;;;10.47;95.69
13476;BME280;6810;63.824;20.288;2023-09-30T06:01:39;99915.06;;;10.46;95.56
13476;BME280;6810;63.824;20.288;2023-09-30T06:04:26;99916.97;;;10.44;95.55
13476;BME280;6810;63.824;20.288;2023-09-30T06:07:13;99914.19;;;10.45;95.58
13476;BME280;6810;63.824;20.288;2023-09-30T06:10:00;99914.19;;;10.45;96.47
13476;BME280;6810;63.824;20.288;2023-09-30T06:12:48;99906.31;;;10.44;95.85
13476;BME280;6810;63.824;20.288;2023-09-30T06:15:42;99915.91;;;10.46;96.29
13476;BME280;6810;63.824;20.288;2023-09-30T06:18:30;99910.59;;;10.46;96.04
13476;BME280;6810;63.824;20.288;2023-09-30T06:21:17;99910.69;;;10.45;96.04
13476;BME280;6810;63.824;20.288;2023-09-30T06:24:04;99913.78;;;10.39;95.95
13476;BME280;6810;63.824;20.288;2023-09-30T06:26:51;99925.28;;;10.39;95.14
13476;BME280;6810;63.824;20.288;2023-09-30T06:29:38;99919.94;;;10.39;96.05
13476;BME280;6810;63.824;20.288;2023-09-30T06:32:25;99920.81;;;10.40;94.93
13476;BME280;6810;63.824;20.288;2023-09-30T06:35:13;99927.94;;;10.39;95.59
13476;BME280;6810;63.824;20.288;2023-09-30T06:38:00;99938.59;;;10.39;96.08
13476;BME280;6810;63.824;20.288;2023-09-30T06:40:47;99934.66;;;10.32;95.67
13476;BME280;6810;63.824;20.288;2023-09-30T06:43:34;99931.03;;;10.33;95.04
13476;BME280;6810;63.824;20.288;2023-09-30T06:46:24;99940.53;;;10.37;95.49
13476;BME280;6810;63.824;20.288;2023-09-30T06:49:11;99945.66;;;10.40;95.17
13476;BME280;6810;63.824;20.288;2023-09-30T06:51:58;99938.50;;;10.41;96.09
13476;BME280;6810;63.824;20.288;2023-09-30T06:54:45;99925.91;;;10.43;95.67
13476;BME280;6810;63.824;20.288;2023-09-30T06:57:34;99902.50;;;10.35;96.14
13476;BME280;6810;63.824;20.288;2023-09-30T07:00:21;99917.72;;;10.46;95.25
13476;BME280;6810;63.824;20.288;2023-09-30T07:03:09;99905.97;;;10.48;95.93
13476;BME280;6810;63.824;20.288;2023-09-30T07:05:56;99904.06;;;10.50;95.02
13476;BME280;6810;63.824;20.288;2023-09-30T07:08:43;99877.75;;;10.33;95.37
13476;BME280;6810;63.824;20.288;2023-09-30T07:11:30;99914.50;;;10.53;95.26
13476;BME280;6810;63.824;20.288;2023-09-30T07:14:20;99919.63;;;10.57;94.98
13476;BME280;6810;63.824;20.288;2023-09-30T07:17:07;99921.22;;;10.59;95.69
13476;BME280;6810;63.824;20.288;2023-09-30T07:19:54;99916.50;;;10.63;94.90
13476;BME280;6810;63.824;20.288;2023-09-30T07:22:41;99907.59;;;10.64;95.32
13476;BME280;6810;63.824;20.288;2023-09-30T07:25:45;99913.41;;;10.69;95.82
13476;BME280;6810;63.824;20.288;2023-09-30T07:28:32;99900.84;;;10.71;95.15
13476;BME280;6810;63.824;20.288;2023-09-30T07:31:20;99907.63;;;10.75;94.86
13476;BME280;6810;63.824;20.288;2023-09-30T07:34:07;99912.63;;;10.79;95.78
13476;BME280;6810;63.824;20.288;2023-09-30T07:36:54;99888.38;;;10.71;96.01
13476;BME280;6810;63.824;20.288;2023-09-30T07:39:41;99908.25;;;10.91;95.57
13476;BME280;6810;63.824;20.288;2023-09-30T07:42:28;99907.81;;;10.97;95.34
13476;BME280;6810;63.824;20.288;2023-09-30T07:45:15;99887.00;;;11.02;95.72
13476;BME280;6810;63.824;20.288;2023-09-30T07:48:02;99884.81;;;11.07;95.16
13476;BME280;6810;63.824;20.288;2023-09-30T07:50:49;99877.44;;;11.10;95.65
13476;BME280;6810;63.824;20.288;2023-09-30T07:53:36;99872.88;;;11.12;95.39
13476;BME280;6810;63.824;20.288;2023-09-30T07:56:40;99886.47;;;11.20;95.77
13476;BME280;6810;63.824;20.288;2023-09-30T07:59:27;99877.75;;;11.18;95.41
13476;BME280;6810;63.824;20.288;2023-09-30T08:02:14;99892.19;;;11.27;95.33
13476;BME280;6810;63.824;20.288;2023-09-30T08:05:01;99881.19;;;11.31;95.83
13476;BME280;6810;63.824;20.288;2023-09-30T08:07:48;99882.56;;;11.37;95.09
13476;BME280;6810;63.824;20.288;2023-09-30T08:10:35;99883.06;;;11.42;95.46
13476;BME280;6810;63.824;20.288;2023-09-30T08:13:23;99882.72;;;11.46;96.24
13476;BME280;6810;63.824;20.288;2023-09-30T08:16:10;99881.28;;;11.53;95.78
13476;BME280;6810;63.824;20.288;2023-09-30T08:18:56;99886.41;;;11.56;96.12
13476;BME280;6810;63.824;20.288;2023-09-30T08:21:43;99880.72;;;11.61;96.07
13476;BME280;6810;63.824;20.288;2023-09-30T08:24:30;99892.88;;;11.65;95.96
13476;BME280;6810;63.824;20.288;2023-09-30T08:27:17;99876.22;;;11.61;95.81
13476;BME280;6810;63.824;20.288;2023-09-30T08:30:05;99893.41;;;11.70;95.52
13476;BME280;6810;63.824;20.288;2023-09-30T08:32:53;99892.53;;;11.69;95.34
13476;BME280;6810;63.824;20.288;2023-09-30T08:35:39;99900.41;;;11.71;95.20
13476;BME280;6810;63.824;20.288;2023-09-30T08:38:26;99897.63;;;11.72;95.43
13476;BME280;6810;63.824;20.288;2023-09-30T08:41:33;99892.19;;;11.74;94.52
13476;BME280;6810;63.824;20.288;2023-09-30T08:44:20;99900.81;;;11.77;95.47
13476;BME280;6810;63.824;20.288;2023-09-30T08:47:08;99899.47;;;11.83;95.01
13476;BME280;6810;63.824;20.288;2023-09-30T08:49:56;99893.06;;;11.85;95.00
13476;BME280;6810;63.824;20.288;2023-09-30T08:52:45;99896.13;;;11.92;95.15
13476;BME280;6810;63.824;20.288;2023-09-30T08:55:33;99878.13;;;11.83;95.53
13476;BME280;6810;63.824;20.288;2023-09-30T08:58:24;99879.38;;;11.90;95.32
13476;BME280;6810;63.824;20.288;2023-09-30T09:01:13;99896.75;;;12.06;94.58
13476;BME280;6810;63.824;20.288;2023-09-30T09:04:00;99899.94;;;12.11;95.35
13476;BME280;6810;63.824;20.288;2023-09-30T09:06:47;99901.16;;;12.18;95.09
13476;BME280;6810;63.824;20.288;2023-09-30T09:09:34;99899.09;;;12.22;95.33
13476;BME280;6810;63.824;20.288;2023-09-30T09:12:21;99890.09;;;12.23;95.34
13476;BME280;6810;63.824;20.288;2023-09-30T09:15:26;99897.88;;;12.26;94.48
13476;BME280;6810;63.824;20.288;2023-09-30T09:18:31;99899.59;;;12.27;94.91
13476;BME280;6810;63.824;20.288;2023-09-30T09:21:20;99904.59;;;12.32;95.43
13476;BME280;6810;63.824;20.288;2023-09-30T09:24:07;99898.00;;;12.36;95.63
13476;BME280;6810;63.824;20.288;2023-09-30T09:29:51;99896.31;;;12.46;95.36
13476;BME280;6810;63.824;20.288;2023-09-30T09:32:38;99897.28;;;12.45;95.46
13476;BME280;6810;63.824;20.288;2023-09-30T09:35:26;99907.97;;;12.56;95.46
13476;BME280;6810;63.824;20.288;2023-09-30T09:38:13;99904.31;;;12.57;95.67
13476;BME280;6810;63.824;20.288;2023-09-30T09:41:00;99907.97;;;12.56;95.59
13476;BME280;6810;63.824;20.288;2023-09-30T09:43:50;99907.38;;;12.63;95.60
13476;BME280;6810;63.824;20.288;2023-09-30T09:46:40;99899.34;;;12.63;95.16
13476;BME280;6810;63.824;20.288;2023-09-30T09:49:27;99912.34;;;12.68;94.43
13476;BME280;6810;63.824;20.288;2023-09-30T09:52:15;99909.69;;;12.68;95.00
13476;BME280;6810;63.824;20.288;2023-09-30T09:55:04;99919.50;;;12.67;94.53
13476;BME280;6810;63.824;20.288;2023-09-30T09:57:51;99915.16;;;12.66;94.34
13476;BME280;6810;63.824;20.288;2023-09-30T10:00:38;99912.47;;;12.66;94.00
13476;BME280;6810;63.824;20.288;2023-09-30T10:03:27;99919.38;;;12.69;94.43
13476;BME280;6810;63.824;20.288;2023-09-30T10:06:15;99921.81;;;12.72;94.41
13476;BME280;6810;63.824;20.288;2023-09-30T10:09:02;99918.19;;;12.73;93.44
13476;BME280;6810;63.824;20.288;2023-09-30T10:11:57;99914.53;;;12.74;94.22
13476;BME280;6810;63.824;20.288;2023-09-30T10:14:44;99916.84;;;12.78;94.06
13476;BME280;6810;63.824;20.288;2023-09-30T10:18:02;99917.81;;;12.77;93.39
13476;BME280;6810;63.824;20.288;2023-09-30T10:20:50;99904.56;;;12.76;92.51
13476;BME280;6810;63.824;20.288;2023-09-30T10:23:36;99915.41;;;12.74;92.32
13476;BME280;6810;63.824;20.288;2023-09-30T10:26:23;99907.50;;;12.73;92.44
13476;BME280;6810;63.824;20.288;2023-09-30T10:29:10;99918.06;;;12.74;92.05
13476;BME280;6810;63.824;20.288;2023-09-30T10:31:57;99912.84;;;12.73;91.66
13476;BME280;6810;63.824;20.288;2023-09-30T10:34:49;99910.28;;;12.71;92.00
13476;BME280;6810;63.824;20.288;2023-09-30T10:37:36;99909.19;;;12.74;91.64
13476;BME280;6810;63.824;20.288;2023-09-30T10:40:28;99900.31;;;12.73;91.48
13476;BME280;6810;63.824;20.288;2023-09-30T10:43:34;99911.38;;;12.80;92.10
13476;BME280;6810;63.824;20.288;2023-09-30T10:49:30;99916.84;;;12.89;91.99
13476;BME280;6810;63.824;20.288;2023-09-30T10:52:23;99916.59;;;12.92;91.78
13476;BME280;6810;63.824;20.288;2023-09-30T10:55:18;99919.00;;;12.95;91.64
13476;BME280;6810;63.824;20.288;2023-09-30T10:58:05;99917.78;;;12.99;90.84
13476;BME280;6810;63.824;20.288;2023-09-30T11:00:55;99916.00;;;13.00;91.12
13476;BME280;6810;63.824;20.288;2023-09-30T11:03:43;99918.56;;;13.01;90.86
13476;BME280;6810;63.824;20.288;2023-09-30T11:06:31;99914.41;;;12.97;90.51
13476;BME280;6810;63.824;20.288;2023-09-30T11:09:22;99917.31;;;13.05;90.90
13476;BME280;6810;63.824;20.288;2023-09-30T11:12:13;99881.06;;;12.90;90.46
13476;BME280;6810;63.824;20.288;2023-09-30T11:15:04;99916.81;;;13.11;90.87
13476;BME280;6810;63.824;20.288;2023-09-30T11:17:52;99918.41;;;13.14;90.78
13476;BME280;6810;63.824;20.288;2023-09-30T11:20:39;99914.75;;;13.15;90.44
13476;BME280;6810;63.824;20.288;2023-09-30T11:23:26;99907.47;;;13.17;90.61
13476;BME280;6810;63.824;20.288;2023-09-30T11:26:13;99915.47;;;13.17;90.40
13476;BME280;6810;63.824;20.288;2023-09-30T11:29:13;99915.34;;;13.18;90.27
13476;BME280;6810;63.824;20.288;2023-09-30T11:32:00;99917.91;;;13.20;89.94
13476;BME280;6810;63.824;20.288;2023-09-30T11:34:47;99918.66;;;13.22;89.71
13476;BME280;6810;63.824;20.288;2023-09-30T11:37:34;99916.66;;;13.24;89.53
13476;BME280;6810;63.824;20.288;2023-09-30T11:40:21;99911.19;;;13.25;89.77
13476;BME280;6810;63.824;20.288;2023-09-30T11:43:09;99859.06;;;12.98;89.56
13476;BME280;6810;63.824;20.288;2023-09-30T11:46:07;99912.53;;;13.31;89.62
13476;BME280;6810;63.824;20.288;2023-09-30T15:00:40;99956.56;;;13.69;86.54
13476;BME280;6810;63.824;20.288;2023-09-30T15:03:08;99940.06;;;13.53;86.51
13476;BME280;6810;63.824;20.288;2023-09-30T15:05:35;99957.66;;;13.67;86.41
13476;BME280;6810;63.824;20.288;2023-09-30T15:08:22;99970.19;;;13.66;86.17
13476;BME280;6810;63.824;20.288;2023-09-30T15:11:13;99934.00;;;13.51;85.99
13476;BME280;6810;63.824;20.288;2023-09-30T15:14:00;99972.19;;;13.64;86.57
13476;BME280;6810;63.824;20.288;2023-09-30T15:16:47;99973.25;;;13.62;86.21
13476;BME280;6810;63.824;20.288;2023-09-30T15:19:34;99980.47;;;13.61;85.84
13476;BME280;6810;63.824;20.288;2023-09-30T15:22:21;99972.06;;;13.55;86.14
13476;BME280;6810;63.824;20.288;2023-09-30T15:25:09;99973.78;;;13.56;86.31
13476;BME280;6810;63.824;20.288;2023-09-30T15:27:55;99981.94;;;13.54;86.13
13476;BME280;6810;63.824;20.288;2023-09-30T15:30:42;99989.63;;;13.48;86.18
13476;BME280;6810;63.824;20.288;2023-09-30T15:33:30;99993.25;;;13.47;86.39
13476;BME280;6810;63.824;20.288;2023-09-30T15:36:17;100001.69;;;13.42;86.97
13476;BME280;6810;63.824;20.288;2023-09-30T15:39:04;100000.94;;;13.40;87.18
13476;BME280;6810;63.824;20.288;2023-09-30T15:41:51;100002.06;;;13.38;87.30
13476;BME280;6810;63.824;20.288;2023-09-30T15:44:38;100006.53;;;13.37;87.61
13476;BME280;6810;63.824;20.288;2023-09-30T15:47:25;100005.84;;;13.35;87.57
13476;BME280;6810;63.824;20.288;2023-09-30T15:50:12;100005.97;;;13.34;87.61
13476;BME280;6810;63.824;20.288;2023-09-30T15:52:59;100005.59;;;13.27;87.32
13476;BME280;6810;63.824;20.288;2023-09-30T15:55:46;100008.28;;;13.27;88.04
13476;BME280;6810;63.824;20.288;2023-09-30T15:58:33;100005.97;;;13.23;87.76
13476;BME280;6810;63.824;20.288;2023-09-30T16:01:20;100009.88;;;13.19;87.94
13476;BME280;6810;63.824;20.288;2023-09-30T16:04:07;100001.34;;;13.14;88.51
13476;BME280;6810;63.824;20.288;2023-09-30T16:06:54;100011.31;;;13.12;88.34
13476;BME280;6810;63.824;20.288;2023-09-30T16:09:41;100013.50;;;13.07;89.04
13476;BME280;6810;63.824;20.288;2023-09-30T16:12:28;100016.44;;;13.04;88.52
13476;BME280;6810;63.824;20.288;2023-09-30T16:15:16;100015.72;;;13.02;88.73
13476;BME280;6810;63.824;20.288;2023-09-30T16:18:03;100012.50;;;12.97;89.46
13476;BME280;6810;63.824;20.288;2023-09-30T16:20:50;100012.63;;;12.95;89.54
13476;BME280;6810;63.824;20.288;2023-09-30T16:23:37;100007.41;;;12.94;89.80
13476;BME280;6810;63.824;20.288;2023-09-30T16:26:24;100012.13;;;12.90;89.55
13476;BME280;6810;63.824;20.288;2023-09-30T16:29:11;100013.00;;;12.91;90.20
13476;BME280;6810;63.824;20.288;2023-09-30T16:31:58;100013.00;;;12.91;89.49
13476;BME280;6810;63.824;20.288;2023-09-30T16:34:45;100009.47;;;12.90;90.21
13476;BME280;6810;63.824;20.288;2023-09-30T16:37:33;100010.44;;;12.89;89.46
13476;BME280;6810;63.824;20.288;2023-09-30T16:40:20;100005.22;;;12.88;89.53
13476;BME280;6810;63.824;20.288;2023-09-30T16:43:25;100000.84;;;12.76;89.70
13476;BME280;6810;63.824;20.288;2023-09-30T16:46:12;100021.63;;;12.83;90.10
13476;BME280;6810;63.824;20.288;2023-09-30T16:48:59;100013.84;;;12.80;89.79
13476;BME280;6810;63.824;20.288;2023-09-30T16:51:46;100009.81;;;12.75;90.47
13476;BME280;6810;63.824;20.288;2023-09-30T16:54:33;100015.78;;;12.78;90.24
13476;BME280;6810;63.824;20.288;2023-09-30T16:57:20;100031.94;;;12.77;90.86
13476;BME280;6810;63.824;20.288;2023-09-30T17:00:07;100029.41;;;12.75;90.90
13476;BME280;6810;63.824;20.288;2023-09-30T17:02:55;100027.72;;;12.74;90.95
13476;BME280;6810;63.824;20.288;2023-09-30T17:05:42;100023.31;;;12.73;91.06
13476;BME280;6810;63.824;20.288;2023-09-30T17:08:29;100011.88;;;12.60;91.13
13476;BME280;6810;63.824;20.288;2023-09-30T17:11:20;100027.94;;;12.71;90.87
13476;BME280;6810;63.824;20.288;2023-09-30T17:14:07;100034.13;;;12.72;91.05
13476;BME280;6810;63.824;20.288;2023-09-30T17:16:54;100035.97;;;12.71;90.86
13476;BME280;6810;63.824;20.288;2023-09-30T17:19:41;100041.31;;;12.71;90.89
13476;BME280;6810;63.824;20.288;2023-09-30T17:22:28;100035.22;;;12.69;91.21
13476;BME280;6810;63.824;20.288;2023-09-30T17:25:15;100042.25;;;12.70;91.09
13476;BME280;6810;63.824;20.288;2023-09-30T17:28:02;100033.53;;;12.68;91.20
13476;BME280;6810;63.824;20.288;2023-09-30T17:30:49;100041.69;;;12.67;91.12
13476;BME280;6810;63.824;20.288;2023-09-30T17:33:36;100037.50;;;12.63;91.61
13476;BME280;6810;63.824;20.288;2023-09-30T17:36:24;100032.16;;;12.63;91.75
13476;BME280;6810;63.824;20.288;2023-09-30T17:39:11;100040.19;;;12.63;91.79
13476;BME280;6810;63.824;20.288;2023-09-30T17:41:58;100045.91;;;12.58;91.59
13476;BME280;6810;63.824;20.288;2023-09-30T17:44:45;100045.31;;;12.55;91.83
13476;BME280;6810;63.824;20.288;2023-09-30T17:47:32;100042.94;;;12.50;91.69
13476;BME280;6810;63.824;20.288;2023-09-30T17:50:19;100039.06;;;12.43;91.67
13476;BME280;6810;63.824;20.288;2023-09-30T17:53:06;100050.63;;;12.44;91.73
13476;BME280;6810;63.824;20.288;2023-09-30T17:55:53;100048.28;;;12.39;92.16
13476;BME280;6810;63.824;20.288;2023-09-30T17:58:40;100034.88;;;12.28;91.44
13476;BME280;6810;63.824;20.288;2023-09-30T18:01:27;100039.50;;;12.26;92.18